Terminal Aerodrome Forecast
Issued by NWS

Home | Current Version | Previous Version | Text Only | Print | Product List | Glossary Off
Versions: 1 2 3 4 5 6 7 8 9 10 11 12 13 14 15 16

191
FTUS43 KICT 141732
TAFSLN
TAF
KSLN 141732Z 1418/1518 25006KT P6SM FEW200
     FM142300 20006KT P6SM SCT250
     FM150300 22007KT P6SM VCSH BKN080
     FM150600 30007KT 4SM -SN OVC025
     FM151300 36015G23KT P6SM OVC090=

USA.gov is the U.S. government's official web portal to all federal, state and local government web resources and services.